createdAt,value
2018-06-09T00:01:23.024Z,13.10
2018-06-09T00:03:53.224Z,13.10
2018-06-09T00:06:23.440Z,13.10
2018-06-09T00:08:53.499Z,13.10
2018-06-09T00:11:23.580Z,13.10
2018-06-09T00:13:53.818Z,13.10
2018-06-09T00:16:23.845Z,13.10
2018-06-09T00:18:54.120Z,13.10
2018-06-09T00:21:24.162Z,13.10
2018-06-09T00:23:54.132Z,13.10
2018-06-09T00:26:24.280Z,13.10
2018-06-09T00:28:54.460Z,13.10
2018-06-09T00:31:24.466Z,13.10
2018-06-09T00:33:54.608Z,13.10
2018-06-09T00:36:24.612Z,13.10
2018-06-09T00:38:54.888Z,13.10
2018-06-09T00:41:25.137Z,13.10
2018-06-09T00:43:55.244Z,13.10
2018-06-09T00:48:54.608Z,13.10
2018-06-09T00:51:25.108Z,13.10
2018-06-09T00:53:55.333Z,13.10
2018-06-09T00:56:36.472Z,13.10
2018-06-09T00:59:06.577Z,13.10
2018-06-09T01:01:36.653Z,13.00
2018-06-09T01:04:07.048Z,13.00
2018-06-09T01:06:37.096Z,13.00
2018-06-09T01:09:08.673Z,13.00
2018-06-09T01:11:38.988Z,13.00
2018-06-09T01:14:09.096Z,13.10
2018-06-09T01:16:39.136Z,13.10
2018-06-09T01:19:09.161Z,13.10
2018-06-09T01:21:39.196Z,13.10
2018-06-09T01:24:09.276Z,13.10
2018-06-09T01:26:39.512Z,13.00
2018-06-09T01:29:09.636Z,13.00
2018-06-09T01:31:39.691Z,13.00
2018-06-09T01:34:09.832Z,13.00
2018-06-09T01:36:39.828Z,13.00
2018-06-09T01:39:09.979Z,13.00
2018-06-09T01:41:40.227Z,13.00
2018-06-09T01:44:10.224Z,13.00
2018-06-09T01:46:40.368Z,12.90
2018-06-09T01:49:10.624Z,12.90
2018-06-09T01:51:40.719Z,12.90
2018-06-09T01:54:10.979Z,12.90
2018-06-09T01:56:41.178Z,12.90
2018-06-09T01:59:11.271Z,12.90
2018-06-09T02:01:41.356Z,12.90
2018-06-09T02:04:11.352Z,12.80
2018-06-09T02:06:41.600Z,12.80
2018-06-09T02:09:11.876Z,12.80
2018-06-09T02:11:42.215Z,12.80
2018-06-09T02:14:12.216Z,12.80
2018-06-09T02:16:42.376Z,12.80
2018-06-09T02:19:12.428Z,12.80
2018-06-09T02:24:12.147Z,12.80
2018-06-09T02:26:42.348Z,12.80
2018-06-09T02:29:12.332Z,12.80
2018-06-09T02:31:42.686Z,12.80
2018-06-09T02:34:12.906Z,12.70
2018-06-09T02:36:43.080Z,12.80
2018-06-09T02:39:13.176Z,12.80
2018-06-09T02:44:12.756Z,12.90
2018-06-09T02:46:42.825Z,12.90
2018-06-09T02:49:13.322Z,13.00
2018-06-09T02:51:43.655Z,13.00
2018-06-09T02:54:13.698Z,13.00
2018-06-09T02:56:43.748Z,13.00
2018-06-09T02:59:13.764Z,13.00
2018-06-09T03:01:43.913Z,13.10
2018-06-09T03:04:13.980Z,13.10
2018-06-09T03:06:44.048Z,13.20
2018-06-09T03:09:14.138Z,13.20
2018-06-09T03:11:44.406Z,13.20
2018-06-09T03:14:14.472Z,13.20
2018-06-09T03:16:44.620Z,13.20
2018-06-09T03:19:14.920Z,13.20
2018-06-09T03:21:45.116Z,13.30
2018-06-09T03:24:15.391Z,13.30
2018-06-09T03:26:45.602Z,13.30
2018-06-09T03:29:15.676Z,13.40
2018-06-09T03:31:45.856Z,13.40
2018-06-09T03:34:16.080Z,13.50
2018-06-09T03:36:46.476Z,13.50
2018-06-09T03:41:45.976Z,13.60
2018-06-09T03:44:16.112Z,13.60
2018-06-09T03:46:46.230Z,13.70
2018-06-09T03:49:16.653Z,13.70
2018-06-09T03:54:16.300Z,13.80
2018-06-09T03:56:46.744Z,13.90
2018-06-09T03:59:17.021Z,13.90
2018-06-09T04:01:47.273Z,14.00
2018-06-09T04:04:17.344Z,14.00
2018-06-09T04:06:47.408Z,14.10
2018-06-09T04:09:17.472Z,14.10
2018-06-09T04:11:47.832Z,14.20
2018-06-09T04:14:17.964Z,14.20
2018-06-09T04:16:49.837Z,14.20
2018-06-09T04:21:50.068Z,14.30
2018-06-09T04:24:20.472Z,14.40
2018-06-09T04:26:50.787Z,14.40
2018-06-09T04:29:20.972Z,14.50
2018-06-09T04:31:51.172Z,14.50
2018-06-09T04:34:21.612Z,14.50
2018-06-09T04:36:51.740Z,14.60
2018-06-09T04:39:22.048Z,14.70
2018-06-09T04:41:52.109Z,14.70
2018-06-09T04:44:22.212Z,14.80
2018-06-09T04:46:52.296Z,14.80
2018-06-09T04:49:22.384Z,14.80
2018-06-09T04:51:52.724Z,14.90
2018-06-09T04:54:22.789Z,15.00
2018-06-09T04:59:22.908Z,15.10
2018-06-09T05:01:53.014Z,15.10
2018-06-09T05:04:23.075Z,15.20
2018-06-09T05:06:53.525Z,15.20
2018-06-09T05:09:23.600Z,15.20
2018-06-09T05:11:53.884Z,15.20
2018-06-09T05:14:23.962Z,15.30
2018-06-09T05:16:54.322Z,15.30
2018-06-09T05:19:24.627Z,15.40
2018-06-09T05:21:54.697Z,15.30
2018-06-09T05:24:25.050Z,15.40
2018-06-09T05:26:55.135Z,15.40
2018-06-09T05:31:55.168Z,15.50
2018-06-09T05:34:25.318Z,15.50
2018-06-09T05:36:55.464Z,15.60
2018-06-09T05:39:25.849Z,15.70
2018-06-09T05:41:55.918Z,15.70
2018-06-09T05:44:26.135Z,15.80
2018-06-09T05:46:56.188Z,15.90
2018-06-09T05:49:26.358Z,16.00
2018-06-09T05:51:56.396Z,16.10
2018-06-09T05:54:26.484Z,16.20
2018-06-09T05:56:56.680Z,16.30
2018-06-09T05:59:26.808Z,16.40
2018-06-09T06:01:56.852Z,16.50
2018-06-09T06:04:26.972Z,16.50
2018-06-09T06:06:57.180Z,16.70
2018-06-09T06:09:27.652Z,16.70
2018-06-09T06:11:57.716Z,16.80
2018-06-09T06:14:27.819Z,17.00
2018-06-09T06:16:57.874Z,17.00
2018-06-09T06:19:28.108Z,17.00
2018-06-09T06:21:58.216Z,17.10
2018-06-09T06:24:28.292Z,17.30
2018-06-09T06:26:58.361Z,17.50
2018-06-09T06:29:28.440Z,17.50
2018-06-09T06:31:58.646Z,17.70
2018-06-09T06:34:28.760Z,18.00
2018-06-09T06:36:58.852Z,18.10
2018-06-09T06:39:29.324Z,18.30
2018-06-09T06:41:59.388Z,18.50
2018-06-09T06:44:29.514Z,18.50
2018-06-09T06:46:59.511Z,18.40
2018-06-09T06:49:29.999Z,18.50
2018-06-09T06:52:00.100Z,18.60
2018-06-09T06:54:30.196Z,18.70
2018-06-09T06:57:00.250Z,19.00
2018-06-09T06:59:30.465Z,19.00
2018-06-09T07:02:00.889Z,19.20
2018-06-09T07:04:30.956Z,19.20
2018-06-09T07:07:01.229Z,19.30
2018-06-09T07:09:31.292Z,19.60
2018-06-09T07:12:01.501Z,19.70
2018-06-09T07:14:31.602Z,19.80
2018-06-09T07:17:01.632Z,19.90
2018-06-09T07:19:31.728Z,20.20
2018-06-09T07:22:01.768Z,20.20
2018-06-09T07:24:32.040Z,20.50
2018-06-09T07:27:02.095Z,20.70
2018-06-09T07:29:32.188Z,20.70
2018-06-09T07:32:02.326Z,20.70
2018-06-09T07:34:32.403Z,20.70
2018-06-09T07:37:03.284Z,20.70
2018-06-09T07:39:33.396Z,20.40
2018-06-09T07:42:03.480Z,20.60
2018-06-09T07:44:33.564Z,20.90
2018-06-09T07:47:03.796Z,20.80
2018-06-09T07:49:33.852Z,21.00
2018-06-09T07:52:03.936Z,21.20
2018-06-09T07:54:33.975Z,21.20
2018-06-09T07:57:04.028Z,21.20
2018-06-09T07:59:34.115Z,21.40
2018-06-09T08:02:04.228Z,21.30
2018-06-09T08:04:34.276Z,21.10
2018-06-09T08:07:04.342Z,20.90
2018-06-09T08:09:34.368Z,21.20
2018-06-09T08:12:04.416Z,21.40
2018-06-09T08:14:34.468Z,21.70
2018-06-09T08:17:04.640Z,21.50
2018-06-09T08:19:34.734Z,21.80
2018-06-09T08:22:04.812Z,21.50
2018-06-09T08:24:34.864Z,21.30
2018-06-09T08:27:04.932Z,21.20
2018-06-09T08:29:34.980Z,21.20
2018-06-09T08:32:05.016Z,21.70
2018-06-09T08:34:35.061Z,21.70
2018-06-09T08:37:05.108Z,21.80
2018-06-09T08:39:35.175Z,22.00
2018-06-09T08:42:05.291Z,22.00
2018-06-09T08:44:35.338Z,22.40
2018-06-09T08:47:05.388Z,22.70
2018-06-09T08:49:35.456Z,22.80
2018-06-09T08:52:05.540Z,22.80
2018-06-09T08:54:35.700Z,22.90
2018-06-09T08:57:05.753Z,23.00
2018-06-09T08:59:35.791Z,22.90
2018-06-09T09:02:05.908Z,22.80
2018-06-09T09:04:35.988Z,22.50
2018-06-09T09:07:06.064Z,22.80
2018-06-09T09:09:36.140Z,22.80
2018-06-09T09:12:06.182Z,22.80
2018-06-09T09:14:36.268Z,23.10
2018-06-09T09:17:06.340Z,23.30
2018-06-09T09:19:36.412Z,23.60
2018-06-09T09:22:06.613Z,23.60
2018-06-09T09:24:36.708Z,23.30
2018-06-09T09:27:06.760Z,23.60
2018-06-09T09:29:36.856Z,23.60
2018-06-09T09:32:06.946Z,23.20
2018-06-09T09:34:37.068Z,22.90
2018-06-09T09:37:07.128Z,23.00
2018-06-09T09:39:37.200Z,23.20
2018-06-09T09:42:07.289Z,23.50
2018-06-09T09:44:37.392Z,23.50
2018-06-09T09:47:07.496Z,23.80
2018-06-09T09:49:37.556Z,23.80
2018-06-09T09:52:07.653Z,23.70
2018-06-09T09:54:37.771Z,23.20
2018-06-09T09:57:07.880Z,23.20
2018-06-09T09:59:38.001Z,22.70
2018-06-09T10:02:08.054Z,23.10
2018-06-09T10:04:38.235Z,23.10
2018-06-09T10:07:08.308Z,23.00
2018-06-09T10:09:38.380Z,23.20
2018-06-09T10:12:08.485Z,23.20
2018-06-09T10:14:38.501Z,22.80
2018-06-09T10:17:08.596Z,23.00
2018-06-09T10:19:38.672Z,22.90
2018-06-09T10:22:08.724Z,23.10
2018-06-09T10:24:38.796Z,23.30
2018-06-09T10:27:08.862Z,23.30
2018-06-09T10:29:38.924Z,23.60
2018-06-09T10:32:08.976Z,23.30
2018-06-09T10:34:39.016Z,23.30
2018-06-09T10:37:09.196Z,23.10
2018-06-09T10:39:39.238Z,23.40
2018-06-09T10:42:09.337Z,23.30
2018-06-09T10:44:39.446Z,23.20
2018-06-09T10:47:09.494Z,23.20
2018-06-09T10:52:09.093Z,23.70
2018-06-09T10:54:39.252Z,23.60
2018-06-09T10:57:09.344Z,24.00
2018-06-09T10:59:39.448Z,23.70
2018-06-09T11:02:09.528Z,23.90
2018-06-09T11:04:39.581Z,24.10
2018-06-09T11:07:09.640Z,24.30
2018-06-09T11:09:40.557Z,24.30
2018-06-09T11:12:10.620Z,24.60
2018-06-09T11:14:40.824Z,24.80
2018-06-09T11:17:10.912Z,24.80
2018-06-09T11:19:41.011Z,24.70
2018-06-09T11:22:11.151Z,24.70
2018-06-09T11:24:41.207Z,24.60
2018-06-09T11:27:11.284Z,24.20
2018-06-09T11:29:41.356Z,24.10
2018-06-09T11:32:11.462Z,24.40
2018-06-09T11:34:41.563Z,24.30
2018-06-09T11:37:11.635Z,24.50
2018-06-09T11:39:41.668Z,25.00
2018-06-09T11:42:11.717Z,25.30
2018-06-09T11:44:41.814Z,24.90
2018-06-09T11:47:11.871Z,24.90
2018-06-09T11:49:41.962Z,24.60
2018-06-09T11:52:12.063Z,25.10
2018-06-09T11:54:42.176Z,25.20
2018-06-09T11:57:12.256Z,25.20
2018-06-09T11:59:42.329Z,25.00
2018-06-09T12:02:12.409Z,25.10
2018-06-09T12:04:42.532Z,25.00
2018-06-09T12:07:12.632Z,24.20
2018-06-09T12:09:42.701Z,24.40
2018-06-09T12:12:12.775Z,24.40
2018-06-09T12:17:12.477Z,24.80
2018-06-09T12:19:42.643Z,25.20
2018-06-09T12:22:12.861Z,24.90
2018-06-09T12:24:42.945Z,25.00
2018-06-09T12:27:13.000Z,25.20
2018-06-09T12:29:43.142Z,25.30
2018-06-09T12:32:13.200Z,25.20
2018-06-09T12:34:43.296Z,25.10
2018-06-09T12:37:13.336Z,25.10
2018-06-09T12:39:43.433Z,25.30
2018-06-09T12:42:13.500Z,25.00
2018-06-09T12:44:43.576Z,25.00
2018-06-09T12:47:13.664Z,25.30
2018-06-09T12:49:43.700Z,25.20
2018-06-09T12:52:13.804Z,25.40
2018-06-09T12:54:43.947Z,25.30
2018-06-09T12:57:14.000Z,25.30
2018-06-09T12:59:44.034Z,25.10
2018-06-09T13:02:14.085Z,25.30
2018-06-09T13:04:44.185Z,25.30
2018-06-09T13:07:14.245Z,25.00
2018-06-09T13:09:44.325Z,25.30
2018-06-09T13:12:14.483Z,25.30
2018-06-09T13:14:44.452Z,25.10
2018-06-09T13:17:14.524Z,25.20
2018-06-09T13:19:44.552Z,25.20
2018-06-09T13:22:14.621Z,25.10
2018-06-09T13:27:14.173Z,25.10
2018-06-09T13:29:44.217Z,25.30
2018-06-09T13:32:14.259Z,25.50
2018-06-09T13:34:44.283Z,25.10
2018-06-09T13:37:14.357Z,25.00
2018-06-09T13:39:44.406Z,24.80
2018-06-09T13:42:14.630Z,24.90
2018-06-09T13:44:44.567Z,24.70
2018-06-09T13:47:14.634Z,24.80
2018-06-09T13:49:44.748Z,24.90
2018-06-09T13:54:45.611Z,24.40
2018-06-09T13:57:15.641Z,24.40
2018-06-09T13:59:45.709Z,24.30
2018-06-09T14:02:15.792Z,24.40
2018-06-09T14:04:45.880Z,24.60
2018-06-09T14:07:15.923Z,24.40
2018-06-09T14:09:46.031Z,24.60
2018-06-09T14:12:16.186Z,24.50
2018-06-09T14:14:46.316Z,24.40
2018-06-09T14:17:16.388Z,24.30
2018-06-09T14:19:46.434Z,24.30
2018-06-09T14:22:16.484Z,24.40
2018-06-09T14:24:46.542Z,24.40
2018-06-09T14:27:16.617Z,24.10
2018-06-09T14:29:46.663Z,24.20
2018-06-09T14:32:16.727Z,24.30
2018-06-09T14:37:16.299Z,24.10
2018-06-09T14:39:46.501Z,23.90
2018-06-09T14:42:16.554Z,24.10
2018-06-09T14:44:46.664Z,24.20
2018-06-09T14:47:16.756Z,23.90
2018-06-09T14:49:46.848Z,24.00
2018-06-09T14:52:16.919Z,23.80
2018-06-09T14:54:47.003Z,23.80
2018-06-09T14:57:17.204Z,23.60
2018-06-09T14:59:47.253Z,23.70
2018-06-09T15:02:17.496Z,23.60
2018-06-09T15:04:47.761Z,23.50
2018-06-09T15:09:47.390Z,23.20
2018-06-09T15:12:17.428Z,23.30
2018-06-09T15:14:47.479Z,23.10
2018-06-09T15:17:17.540Z,23.10
2018-06-09T15:19:47.605Z,23.10
2018-06-09T15:22:17.716Z,23.10
2018-06-09T15:24:47.748Z,23.10
2018-06-09T15:27:17.819Z,23.00
2018-06-09T15:29:47.893Z,23.00
2018-06-09T15:32:18.036Z,23.00
2018-06-09T15:34:48.093Z,23.00
2018-06-09T15:37:18.228Z,23.00
2018-06-09T15:39:48.328Z,22.90
2018-06-09T15:42:18.416Z,22.80
2018-06-09T15:44:48.505Z,22.80
2018-06-09T15:47:18.560Z,22.80
2018-06-09T15:49:48.624Z,22.80
2018-06-09T15:52:18.708Z,23.00
2018-06-09T15:54:48.795Z,23.10
2018-06-09T15:57:18.928Z,23.00
2018-06-09T15:59:49.040Z,23.00
2018-06-09T16:02:19.232Z,22.90
2018-06-09T16:04:49.279Z,22.90
2018-06-09T16:07:19.392Z,23.00
2018-06-09T16:09:49.504Z,23.10
2018-06-09T16:12:19.596Z,22.90
2018-06-09T16:14:49.734Z,22.90
2018-06-09T16:17:19.803Z,22.80
2018-06-09T16:19:49.879Z,22.80
2018-06-09T16:22:19.971Z,22.70
2018-06-09T16:24:50.091Z,22.80
2018-06-09T16:27:20.192Z,22.70
2018-06-09T16:29:50.256Z,22.80
2018-06-09T16:32:20.340Z,22.80
2018-06-09T16:34:50.430Z,22.70
2018-06-09T16:37:20.485Z,22.70
2018-06-09T16:39:50.575Z,22.80
2018-06-09T16:42:20.660Z,22.80
2018-06-09T16:44:50.716Z,22.80
2018-06-09T16:47:20.960Z,22.70
2018-06-09T16:49:51.003Z,22.70
2018-06-09T16:52:21.072Z,22.70
2018-06-09T16:54:51.132Z,22.70
2018-06-09T16:57:21.236Z,22.60
2018-06-09T16:59:51.296Z,22.50
2018-06-09T17:04:50.903Z,22.40
2018-06-09T17:07:20.928Z,22.40
2018-06-09T17:09:50.988Z,22.50
2018-06-09T17:12:21.068Z,22.50
2018-06-09T17:14:51.052Z,22.40
2018-06-09T17:17:21.132Z,22.50
2018-06-09T17:19:51.200Z,22.40
2018-06-09T17:22:21.296Z,22.40
2018-06-09T17:24:51.283Z,22.30
2018-06-09T17:27:21.316Z,22.20
2018-06-09T17:29:51.371Z,22.00
2018-06-09T17:32:21.712Z,22.00
2018-06-09T17:34:51.768Z,21.90
2018-06-09T17:37:21.840Z,21.90
2018-06-09T17:39:51.976Z,21.90
2018-06-09T17:42:22.052Z,21.90
2018-06-09T17:44:52.108Z,21.90
2018-06-09T17:47:22.234Z,21.80
2018-06-09T17:49:52.388Z,21.80
2018-06-09T17:52:22.470Z,21.60
2018-06-09T17:54:52.549Z,21.50
2018-06-09T17:57:22.680Z,21.50
2018-06-09T17:59:52.751Z,21.40
2018-06-09T18:02:22.832Z,21.30
2018-06-09T18:04:52.892Z,21.30
2018-06-09T18:07:23.140Z,21.20
2018-06-09T18:09:53.211Z,21.20
2018-06-09T18:12:23.308Z,21.00
2018-06-09T18:14:53.380Z,21.00
2018-06-09T18:17:23.408Z,21.00
2018-06-09T18:19:53.524Z,21.00
2018-06-09T18:22:23.592Z,20.90
2018-06-09T18:24:53.640Z,20.80
2018-06-09T18:27:23.728Z,20.80
2018-06-09T18:29:53.927Z,20.70
2018-06-09T18:32:23.996Z,20.70
2018-06-09T18:34:54.063Z,20.70
2018-06-09T18:37:24.083Z,20.60
2018-06-09T18:39:54.149Z,20.50
2018-06-09T18:42:24.175Z,20.50
2018-06-09T18:44:54.288Z,20.50
2018-06-09T18:49:53.872Z,20.50
2018-06-09T18:52:24.000Z,20.30
2018-06-09T18:54:54.067Z,20.20
2018-06-09T18:57:24.153Z,20.10
2018-06-09T18:59:54.220Z,20.10
2018-06-09T19:02:24.326Z,20.10
2018-06-09T19:04:54.484Z,20.00
2018-06-09T19:07:24.712Z,20.00
2018-06-09T19:09:54.772Z,19.90
2018-06-09T19:12:24.844Z,19.90
2018-06-09T19:14:54.957Z,19.80
2018-06-09T19:17:25.012Z,19.70
2018-06-09T19:19:55.090Z,19.60
2018-06-09T19:22:25.184Z,19.60
2018-06-09T19:24:55.310Z,19.60
2018-06-09T19:27:25.471Z,19.50
2018-06-09T19:29:55.500Z,19.40
2018-06-09T19:32:25.608Z,19.30
2018-06-09T19:34:55.700Z,19.20
2018-06-09T19:37:25.812Z,19.20
2018-06-09T19:39:55.827Z,19.10
2018-06-09T19:42:25.952Z,19.00
2018-06-09T19:44:56.012Z,18.90
2018-06-09T19:47:26.148Z,18.80
2018-06-09T19:49:56.262Z,18.80
2018-06-09T19:52:26.320Z,18.80
2018-06-09T19:54:56.376Z,18.80
2018-06-09T19:57:26.498Z,18.80
2018-06-09T19:59:56.517Z,18.60
2018-06-09T20:02:26.572Z,18.60
2018-06-09T20:04:56.688Z,18.50
2018-06-09T20:07:26.724Z,18.40
2018-06-09T20:09:56.813Z,18.40
2018-06-09T20:12:26.859Z,18.40
2018-06-09T20:14:56.859Z,18.40
2018-06-09T20:17:26.907Z,18.30
2018-06-09T20:19:56.952Z,18.20
2018-06-09T20:22:27.023Z,18.20
2018-06-09T20:24:57.388Z,18.10
2018-06-09T20:27:27.460Z,18.00
2018-06-09T20:29:57.537Z,18.00
2018-06-09T20:32:27.615Z,17.90
2018-06-09T20:34:57.668Z,17.80
2018-06-09T20:37:27.761Z,17.80
2018-06-09T20:39:57.852Z,17.70
2018-06-09T20:42:27.919Z,17.70
2018-06-09T20:44:57.952Z,17.70
2018-06-09T20:47:28.002Z,17.60
2018-06-09T20:49:58.023Z,17.50
2018-06-09T20:54:57.660Z,17.30
2018-06-09T20:57:27.747Z,17.30
2018-06-09T20:59:57.716Z,17.20
2018-06-09T21:02:27.757Z,17.20
2018-06-09T21:04:57.840Z,17.20
2018-06-09T21:09:57.670Z,17.10
2018-06-09T21:12:27.728Z,17.00
2018-06-09T21:14:57.789Z,17.00
2018-06-09T21:17:27.852Z,17.00
2018-06-09T21:19:57.933Z,17.00
2018-06-09T21:22:27.981Z,16.90
2018-06-09T21:24:57.972Z,16.90
2018-06-09T21:27:29.340Z,16.90
2018-06-09T21:29:59.904Z,16.80
2018-06-09T21:33:38.488Z,16.80
2018-06-09T21:36:18.620Z,16.80
2018-06-09T21:38:55.020Z,16.70
2018-06-09T21:41:29.428Z,16.50
2018-06-09T21:44:04.407Z,16.40
2018-06-09T21:46:34.516Z,16.30
2018-06-09T21:51:33.980Z,16.20
2018-06-09T21:54:04.133Z,16.10
2018-06-09T21:56:34.129Z,16.10
2018-06-09T21:59:04.260Z,16.10
2018-06-09T22:01:34.624Z,16.10
2018-06-09T22:04:04.688Z,16.10
2018-06-09T22:06:35.042Z,16.10
2018-06-09T22:09:06.390Z,16.10
2018-06-09T22:11:36.423Z,16.10
2018-06-09T22:14:06.488Z,16.10
2018-06-09T22:16:36.558Z,16.00
2018-06-09T22:19:06.569Z,16.00
2018-06-09T22:21:36.624Z,16.00
2018-06-09T22:24:06.628Z,15.90
2018-06-09T22:26:36.655Z,15.80
2018-06-09T22:29:06.711Z,15.80
2018-06-09T22:31:36.724Z,15.80
2018-06-09T22:34:06.757Z,15.80
2018-06-09T22:36:37.045Z,15.80
2018-06-09T22:39:08.018Z,15.80
2018-06-09T22:41:38.028Z,15.70
2018-06-09T22:44:08.083Z,15.70
2018-06-09T22:46:38.324Z,15.70
2018-06-09T22:49:08.376Z,15.60
2018-06-09T22:51:38.810Z,15.60
2018-06-09T22:54:08.788Z,15.60
2018-06-09T22:56:38.759Z,15.60
2018-06-09T22:59:08.708Z,15.60
2018-06-09T23:01:38.660Z,15.60
2018-06-09T23:04:08.764Z,15.70
2018-06-09T23:06:38.780Z,15.70
2018-06-09T23:09:09.248Z,15.70
2018-06-09T23:11:39.256Z,15.60
2018-06-09T23:14:09.236Z,15.60
2018-06-09T23:16:39.492Z,15.50
2018-06-09T23:19:09.508Z,15.50
2018-06-09T23:21:39.635Z,15.60
2018-06-09T23:24:09.651Z,15.60
2018-06-09T23:26:39.653Z,15.60
2018-06-09T23:29:09.680Z,15.60
2018-06-09T23:31:39.696Z,15.60
2018-06-09T23:34:09.704Z,15.60
2018-06-09T23:36:39.756Z,15.60
2018-06-09T23:39:09.792Z,15.70
2018-06-09T23:41:39.816Z,15.60
2018-06-09T23:44:09.836Z,15.60
2018-06-09T23:46:40.009Z,15.60
2018-06-09T23:49:09.952Z,15.60
2018-06-09T23:51:40.045Z,15.70
2018-06-09T23:54:10.052Z,15.70
2018-06-09T23:56:40.144Z,15.60
2018-06-09T23:59:10.163Z,15.60
